Time;durP1;ratioP1;P1;durP2;ratioP2;P2;SDS_P1;SDS_P2;PMS_P1;PMS_P2;Temp;Humidity;BMP_temperature;BMP_pressure;BME280_temperature;BME280_humidity;BME280_pressure;Samples;Min_cycle;Max_cycle;Signal;HPM_P1;HPM_P2
2022/07/08 00:01:33;;;;;;;7.70;1.80;;;14.70;99.90;;;;;;5096520;28;20463;-50
2022/07/08 00:03:59;;;;;;;6.00;1.55;;;14.70;99.90;;;;;;5096060;28;20043;-50
2022/07/08 00:06:25;;;;;;;7.85;1.25;;;14.70;99.90;;;;;;5082970;28;20075;-48
2022/07/08 00:08:51;;;;;;;6.20;1.20;;;14.60;99.90;;;;;;5076145;28;20516;-50
2022/07/08 00:11:17;;;;;;;7.50;1.40;;;14.60;99.90;;;;;;5075976;28;20109;-50
2022/07/08 00:13:43;;;;;;;10.88;1.70;;;14.60;99.90;;;;;;5076234;28;20115;-49
2022/07/08 00:16:09;;;;;;;7.30;1.80;;;14.50;99.90;;;;;;5076099;28;20483;-50
2022/07/08 00:18:35;;;;;;;8.35;1.40;;;14.40;99.90;;;;;;5076294;28;20093;-50
2022/07/08 00:21:01;;;;;;;5.13;1.38;;;14.40;99.90;;;;;;5075856;28;20392;-53
2022/07/08 00:23:26;;;;;;;7.63;1.48;;;14.40;99.90;;;;;;5076304;28;20395;-51
2022/07/08 00:25:52;;;;;;;6.55;1.40;;;14.30;99.90;;;;;;5076007;28;20119;-52
2022/07/08 00:28:18;;;;;;;9.00;1.55;;;14.30;99.90;;;;;;5075674;28;20410;-51
2022/07/08 00:30:43;;;;;;;5.00;1.20;;;14.20;99.90;;;;;;5075021;28;20391;-51
2022/07/08 00:33:09;;;;;;;6.22;1.58;;;14.20;99.90;;;;;;5072003;28;20047;-51
2022/07/08 00:35:35;;;;;;;7.18;1.23;;;14.10;99.90;;;;;;5091024;28;20038;-48
2022/07/08 00:38:01;;;;;;;9.07;1.40;;;14.20;99.90;;;;;;5092755;28;20104;-50
2022/07/08 00:40:27;;;;;;;6.05;1.80;;;14.20;99.90;;;;;;5085228;28;20051;-47
2022/07/08 00:42:52;;;;;;;8.77;1.40;;;14.10;99.90;;;;;;5072573;28;20044;-50
2022/07/08 00:45:18;;;;;;;10.32;1.85;;;14.10;99.90;;;;;;5072728;28;20090;-50
2022/07/08 00:47:44;;;;;;;5.43;1.20;;;14.10;99.90;;;;;;5072451;28;20074;-49
2022/07/08 00:50:11;;;;;;;7.25;1.33;;;14.10;99.90;;;;;;5072599;28;20028;-53
2022/07/08 00:52:40;;;;;;;7.22;1.20;;;14.10;99.90;;;;;;5072410;28;20068;-51
2022/07/08 00:55:08;;;;;;;8.27;1.30;;;14.10;99.90;;;;;;5072252;28;20047;-51
2022/07/08 00:57:38;;;;;;;10.38;1.55;;;14.10;99.90;;;;;;5072152;28;20480;-52
2022/07/08 01:00:05;;;;;;;5.68;1.52;;;14.10;99.90;;;;;;5072431;28;20538;-51
2022/07/08 01:02:31;;;;;;;4.53;1.48;;;14.10;99.90;;;;;;5070982;28;20047;-49
2022/07/08 01:04:57;;;;;;;6.65;1.30;;;14.10;99.90;;;;;;5071299;28;20415;-51
2022/07/08 01:07:23;;;;;;;5.60;1.48;;;14.10;99.90;;;;;;5071866;28;20407;-51
2022/07/08 01:09:50;;;;;;;8.10;1.83;;;14.10;99.90;;;;;;5090634;28;20055;-51
2022/07/08 01:12:16;;;;;;;9.63;1.95;;;14.10;99.90;;;;;;5092188;28;20497;-49
2022/07/08 01:14:42;;;;;;;6.07;1.45;;;14.20;99.90;;;;;;5092006;28;20043;-49
2022/07/08 01:17:08;;;;;;;7.53;1.85;;;14.10;99.90;;;;;;5092224;28;20036;-49
2022/07/08 01:19:34;;;;;;;9.10;1.58;;;14.10;99.90;;;;;;5092118;28;20051;-50
2022/07/08 01:21:59;;;;;;;6.85;1.80;;;14.20;99.90;;;;;;5092344;28;20114;-51
2022/07/08 01:24:25;;;;;;;4.53;1.20;;;14.10;99.90;;;;;;5091713;28;20372;-51
2022/07/08 01:26:51;;;;;;;5.95;1.33;;;14.20;99.90;;;;;;5081854;28;20044;-48
2022/07/08 01:29:17;;;;;;;9.60;1.77;;;14.20;99.90;;;;;;5071442;28;20103;-48
2022/07/08 01:31:43;;;;;;;6.45;1.25;;;14.20;99.90;;;;;;5080958;28;20036;-48
2022/07/08 01:34:09;;;;;;;8.10;2.10;;;14.20;99.90;;;;;;5091861;28;20036;-49
2022/07/08 01:36:35;;;;;;;6.97;1.30;;;14.20;99.90;;;;;;5091232;28;20031;-50
2022/07/08 01:39:00;;;;;;;7.22;1.27;;;14.20;99.90;;;;;;5091881;28;20040;-51
2022/07/08 01:41:26;;;;;;;9.93;1.85;;;14.20;99.90;;;;;;5087916;28;20483;-53
2022/07/08 01:43:52;;;;;;;7.22;1.73;;;14.10;99.90;;;;;;5071221;28;20072;-50
2022/07/08 01:46:17;;;;;;;8.20;1.55;;;14.10;99.90;;;;;;5060847;28;20063;-50
2022/07/08 01:48:43;;;;;;;6.47;1.77;;;14.10;99.90;;;;;;5082395;28;20032;-52
2022/07/08 01:54:34;;;;;;;9.67;1.70;;;14.00;99.90;;;;;;4984105;22;20048;-50
2022/07/08 01:57:15;;;;;;;6.82;1.58;;;14.00;99.90;;;;;;5048213;28;20661;-47
2022/07/08 01:59:49;;;;;;;7.68;1.27;;;13.90;99.90;;;;;;5051244;28;20450;-49
2022/07/08 02:02:17;;;;;;;8.27;1.70;;;13.90;99.90;;;;;;5051687;28;20035;-52
2022/07/08 02:04:43;;;;;;;9.55;2.00;;;13.90;99.90;;;;;;5051428;28;20040;-49
2022/07/08 02:07:09;;;;;;;7.82;1.55;;;13.80;99.90;;;;;;5051413;28;20560;-52
2022/07/08 02:09:36;;;;;;;8.98;1.98;;;13.70;99.90;;;;;;5051509;28;20168;-50
2022/07/08 02:12:18;;;;;;;4.35;1.42;;;13.70;99.90;;;;;;5051256;28;20045;-52
2022/07/08 02:14:48;;;;;;;8.02;2.33;;;13.70;99.90;;;;;;5050156;28;20095;-51
2022/07/08 02:17:15;;;;;;;8.98;1.88;;;13.60;99.90;;;;;;5051081;28;20033;-51
2022/07/08 02:19:41;;;;;;;7.28;1.85;;;13.50;99.90;;;;;;5050597;28;20037;-52
2022/07/08 02:22:08;;;;;;;6.95;1.67;;;13.50;99.90;;;;;;5033249;28;20484;-51
2022/07/08 02:24:34;;;;;;;7.43;1.58;;;13.50;99.90;;;;;;5033088;28;20029;-47
2022/07/08 02:27:00;;;;;;;7.38;1.60;;;13.40;99.90;;;;;;5051098;28;20041;-47
2022/07/08 02:29:25;;;;;;;8.13;1.70;;;13.40;99.90;;;;;;5051121;28;20037;-47
2022/07/08 02:31:51;;;;;;;7.00;1.33;;;13.40;99.90;;;;;;5051178;28;20083;-48
2022/07/08 02:34:17;;;;;;;7.30;1.65;;;13.30;99.90;;;;;;5050961;28;20049;-51
2022/07/08 02:36:43;;;;;;;8.45;1.92;;;13.30;99.90;;;;;;5051075;28;20095;-47
2022/07/08 02:39:09;;;;;;;9.02;1.90;;;13.20;99.90;;;;;;5049539;28;20037;-48
2022/07/08 02:41:38;;;;;;;6.45;1.52;;;13.20;99.90;;;;;;5032871;28;20440;-51
2022/07/08 02:44:04;;;;;;;8.85;1.73;;;13.10;99.90;;;;;;5033152;28;20424;-52
2022/07/08 02:46:30;;;;;;;9.18;1.77;;;13.10;99.90;;;;;;5050738;28;20045;-49
2022/07/08 02:48:55;;;;;;;5.13;1.58;;;13.10;99.90;;;;;;5033087;28;20047;-51
2022/07/08 02:51:21;;;;;;;7.70;1.63;;;13.10;99.90;;;;;;5050420;28;20068;-48
2022/07/08 02:53:50;;;;;;;10.18;1.70;;;13.10;99.90;;;;;;5050748;28;20037;-52
2022/07/08 02:56:15;;;;;;;5.05;1.40;;;13.00;99.90;;;;;;5050014;28;20048;-48
2022/07/08 02:58:41;;;;;;;8.63;1.80;;;13.00;99.90;;;;;;5049393;28;20381;-51
2022/07/08 03:01:07;;;;;;;7.43;1.60;;;12.90;99.90;;;;;;5050823;28;20037;-48
2022/07/08 03:03:32;;;;;;;7.93;1.67;;;12.90;99.90;;;;;;5032894;28;20087;-49
2022/07/08 03:05:58;;;;;;;8.02;1.92;;;12.90;99.90;;;;;;5050526;28;20068;-50
2022/07/08 03:08:24;;;;;;;9.23;2.08;;;12.80;99.90;;;;;;5050482;28;20128;-51
2022/07/08 03:10:49;;;;;;;8.82;1.70;;;12.90;99.90;;;;;;5050483;28;20071;-49
2022/07/08 03:13:16;;;;;;;9.45;1.92;;;12.90;99.90;;;;;;5032971;28;20480;-51
2022/07/08 03:15:41;;;;;;;8.10;1.70;;;12.90;99.90;;;;;;5050615;28;20041;-53
2022/07/08 03:18:07;;;;;;;11.30;1.90;;;12.90;99.90;;;;;;5050610;28;20420;-51
2022/07/08 03:20:33;;;;;;;8.32;1.75;;;12.80;99.90;;;;;;5049576;28;20043;-50
2022/07/08 03:22:59;;;;;;;5.90;1.40;;;12.80;99.90;;;;;;5047845;28;20396;-51
2022/07/08 03:25:25;;;;;;;8.20;1.67;;;12.80;99.90;;;;;;5049427;28;20029;-50
2022/07/08 03:27:51;;;;;;;10.23;1.95;;;12.80;99.90;;;;;;5031167;28;20048;-50
2022/07/08 03:30:16;;;;;;;9.43;1.90;;;12.80;99.90;;;;;;5029696;28;20208;-51
2022/07/08 03:32:42;;;;;;;6.82;1.73;;;12.80;99.90;;;;;;5049637;28;20044;-50
2022/07/08 03:35:08;;;;;;;8.68;2.00;;;12.80;99.90;;;;;;5049407;28;20460;-49
2022/07/08 03:37:34;;;;;;;11.20;2.28;;;12.80;99.90;;;;;;5049644;28;20059;-48
2022/07/08 03:42:44;;;;;;;9.57;2.03;;;12.70;99.90;;;;;;5048887;28;20527;-50
2022/07/08 03:45:10;;;;;;;7.18;1.73;;;12.70;99.90;;;;;;5049563;28;20037;-50
2022/07/08 03:47:35;;;;;;;8.23;2.05;;;12.70;99.90;;;;;;5049797;28;20396;-51
2022/07/08 03:50:01;;;;;;;6.80;1.88;;;12.70;99.90;;;;;;5048827;28;20040;-50
2022/07/08 03:52:27;;;;;;;9.43;2.30;;;12.70;99.90;;;;;;5049325;28;20033;-50
2022/07/08 03:54:53;;;;;;;11.32;1.90;;;12.70;99.90;;;;;;5031609;28;20180;-50
2022/07/08 03:57:19;;;;;;;8.45;2.00;;;12.70;99.90;;;;;;5049578;28;20060;-52
2022/07/08 03:59:44;;;;;;;7.50;1.60;;;12.70;99.90;;;;;;5049768;28;20374;-49
2022/07/08 04:02:10;;;;;;;8.77;2.15;;;12.80;99.90;;;;;;5049797;28;20044;-47
2022/07/08 04:04:36;;;;;;;7.05;2.25;;;12.80;99.90;;;;;;5049935;28;20041;-49
2022/07/08 04:07:01;;;;;;;10.30;2.20;;;12.80;99.90;;;;;;5052274;28;20037;-50
2022/07/08 04:09:27;;;;;;;7.72;1.80;;;12.80;99.90;;;;;;5035806;28;20092;-52
2022/07/08 04:11:53;;;;;;;8.32;2.20;;;12.80;99.90;;;;;;5053427;28;20361;-49
2022/07/08 04:14:18;;;;;;;7.43;1.52;;;12.80;99.90;;;;;;5053421;28;20076;-51
2022/07/08 04:16:44;;;;;;;6.15;2.10;;;12.80;99.90;;;;;;5053272;28;20452;-50
2022/07/08 04:19:10;;;;;;;6.72;1.90;;;12.80;99.90;;;;;;5053399;28;20040;-50
2022/07/08 04:21:36;;;;;;;10.18;2.10;;;12.80;99.90;;;;;;5052715;28;20041;-48
2022/07/08 04:24:01;;;;;;;7.20;2.13;;;12.40;99.90;;;;;;5053323;28;20032;-50
2022/07/08 04:26:31;;;;;;;7.07;2.20;;;13.00;99.90;;;;;;5035612;28;20053;-47
2022/07/08 04:28:58;;;;;;;7.00;2.17;;;13.00;99.90;;;;;;5062641;28;20536;-48
2022/07/08 04:31:24;;;;;;;9.30;2.17;;;13.00;99.90;;;;;;5071248;28;20047;-51
2022/07/08 04:33:49;;;;;;;7.57;2.10;;;13.10;99.90;;;;;;5066566;28;20052;-52
2022/07/08 04:36:15;;;;;;;10.73;2.22;;;13.10;99.90;;;;;;5057472;28;20392;-50
2022/07/08 04:38:41;;;;;;;9.02;2.42;;;13.20;99.90;;;;;;5052703;28;20450;-49
2022/07/08 04:41:07;;;;;;;9.70;2.20;;;13.30;99.90;;;;;;5052673;28;20415;-49
2022/07/08 04:43:32;;;;;;;7.47;2.78;;;13.30;99.90;;;;;;5053043;28;20361;-50
2022/07/08 04:45:58;;;;;;;7.05;2.35;;;13.40;99.90;;;;;;5034591;28;20361;-49
2022/07/08 04:48:24;;;;;;;10.40;2.17;;;13.60;99.90;;;;;;5052144;28;20128;-49
2022/07/08 04:50:50;;;;;;;8.98;1.95;;;13.60;99.90;;;;;;5033979;28;20449;-51
2022/07/08 04:53:16;;;;;;;9.43;2.10;;;13.70;99.90;;;;;;5052574;28;20075;-50
2022/07/08 04:55:41;;;;;;;9.93;2.33;;;13.90;99.90;;;;;;5051557;28;20102;-54
2022/07/08 04:58:07;;;;;;;9.05;2.03;;;14.00;99.90;;;;;;5052808;28;20095;-51
2022/07/08 05:00:34;;;;;;;7.47;1.90;;;14.00;99.90;;;;;;5052386;28;20044;-53
2022/07/08 05:03:00;;;;;;;7.35;1.77;;;14.00;99.90;;;;;;5052331;28;20531;-49
2022/07/08 05:05:27;;;;;;;8.63;1.77;;;14.30;99.90;;;;;;5052785;28;20059;-51
2022/07/08 05:07:53;;;;;;;8.35;2.13;;;14.30;99.90;;;;;;5044512;28;20045;-52
2022/07/08 05:10:23;;;;;;;9.43;1.92;;;14.40;99.90;;;;;;5052648;28;20056;-51
2022/07/08 05:12:49;;;;;;;8.40;1.95;;;14.40;99.90;;;;;;5052627;28;20036;-49
2022/07/08 05:15:15;;;;;;;10.07;2.25;;;14.40;99.90;;;;;;5052372;28;20382;-47
2022/07/08 05:17:41;;;;;;;10.57;1.70;;;14.50;99.90;;;;;;5033818;28;20044;-48
2022/07/08 05:20:08;;;;;;;7.63;2.00;;;14.70;99.90;;;;;;5051791;28;20115;-49
2022/07/08 05:22:34;;;;;;;9.55;2.13;;;14.70;99.90;;;;;;5052384;28;20091;-49
2022/07/08 05:25:00;;;;;;;17.42;2.58;;;14.80;99.90;;;;;;5052350;28;20068;-51
2022/07/08 05:27:25;;;;;;;12.38;1.70;;;14.70;99.90;;;;;;5052149;28;20037;-50
2022/07/08 05:29:51;;;;;;;8.77;1.50;;;14.80;99.90;;;;;;5052206;28;20068;-53
2022/07/08 05:32:17;;;;;;;7.85;2.20;;;14.90;99.90;;;;;;5051946;28;20456;-52
2022/07/08 05:34:44;;;;;;;10.32;2.03;;;14.80;99.90;;;;;;5052099;28;20043;-49
2022/07/08 05:37:11;;;;;;;8.35;2.03;;;15.00;99.90;;;;;;5033974;28;20036;-51
2022/07/08 05:39:38;;;;;;;8.80;1.40;;;15.00;99.90;;;;;;5051643;28;20029;-48
2022/07/08 05:42:04;;;;;;;9.18;2.38;;;15.10;99.90;;;;;;5051629;28;20083;-49
2022/07/08 05:44:30;;;;;;;11.70;2.15;;;15.00;99.90;;;;;;5051717;28;20064;-52
2022/07/08 05:46:55;;;;;;;9.30;1.98;;;15.10;99.90;;;;;;5050844;28;20052;-49
2022/07/08 05:49:21;;;;;;;5.88;1.52;;;15.20;99.90;;;;;;5053448;28;20037;-52
2022/07/08 05:51:47;;;;;;;5.28;1.40;;;15.20;99.90;;;;;;5050611;28;20089;-50
2022/07/08 05:54:12;;;;;;;8.45;1.77;;;15.20;99.90;;;;;;5058330;28;20120;-51
2022/07/08 05:56:38;;;;;;;5.22;1.75;;;15.40;99.90;;;;;;5050144;28;20125;-52
2022/07/08 05:59:03;;;;;;;7.80;1.63;;;15.40;99.90;;;;;;5071145;28;20044;-48
2022/07/08 06:01:29;;;;;;;10.90;1.98;;;15.50;99.90;;;;;;5071059;28;20037;-52
2022/07/08 06:03:55;;;;;;;7.28;1.90;;;15.50;99.90;;;;;;5071209;28;20147;-49
2022/07/08 06:06:20;;;;;;;11.68;1.83;;;15.60;99.90;;;;;;5071082;28;20036;-48
2022/07/08 06:08:46;;;;;;;7.10;1.58;;;15.50;99.90;;;;;;5070988;28;20041;-49
2022/07/08 06:11:12;;;;;;;6.65;1.27;;;15.60;99.90;;;;;;5052911;28;20036;-50
2022/07/08 06:13:37;;;;;;;7.60;1.98;;;15.80;99.90;;;;;;5070772;28;20055;-48
2022/07/08 06:16:03;;;;;;;10.15;1.80;;;15.80;99.90;;;;;;5070562;28;20036;-49
2022/07/08 06:18:29;;;;;;;7.30;1.70;;;15.90;99.90;;;;;;5070939;28;20044;-52
2022/07/08 06:20:54;;;;;;;8.65;2.08;;;16.00;99.90;;;;;;5070097;28;20032;-52
2022/07/08 06:23:20;;;;;;;8.63;1.90;;;16.00;99.90;;;;;;5070829;28;20043;-54
2022/07/08 06:25:46;;;;;;;12.93;2.10;;;16.20;99.90;;;;;;5070415;28;20539;-52
2022/07/08 06:28:11;;;;;;;7.85;1.48;;;16.20;99.90;;;;;;5070701;28;20037;-49
2022/07/08 06:30:37;;;;;;;11.32;1.70;;;16.40;99.90;;;;;;5069592;28;20040;-51
2022/07/08 06:33:04;;;;;;;7.80;2.03;;;16.40;99.90;;;;;;5070697;28;20040;-52
2022/07/08 06:35:29;;;;;;;9.82;2.05;;;16.50;99.90;;;;;;5052714;28;20036;-48
2022/07/08 06:37:55;;;;;;;9.32;1.80;;;16.40;99.90;;;;;;5070519;28;20044;-50
2022/07/08 06:40:21;;;;;;;7.90;1.40;;;16.40;99.90;;;;;;5070468;28;20040;-48
2022/07/08 06:42:48;;;;;;;6.28;1.50;;;16.40;99.90;;;;;;5070491;28;20040;-52
2022/07/08 06:45:14;;;;;;;5.10;1.65;;;16.40;99.90;;;;;;5052685;28;20282;-50
2022/07/08 06:47:40;;;;;;;10.02;2.05;;;16.50;99.90;;;;;;5067020;28;20084;-53
2022/07/08 06:50:06;;;;;;;11.27;1.70;;;16.60;99.90;;;;;;5066393;28;20040;-51
2022/07/08 06:52:35;;;;;;;7.38;1.60;;;16.60;99.90;;;;;;5064954;28;20180;-49
2022/07/08 06:55:02;;;;;;;9.98;2.00;;;16.70;99.90;;;;;;5068883;28;20041;-50
2022/07/08 06:57:29;;;;;;;7.25;1.65;;;16.70;99.90;;;;;;5067965;28;20740;-51
2022/07/08 06:59:54;;;;;;;8.57;1.52;;;16.70;99.90;;;;;;5066676;28;20091;-48
2022/07/08 07:02:20;;;;;;;9.50;1.63;;;16.80;99.90;;;;;;5066304;28;20076;-51
2022/07/08 07:04:46;;;;;;;7.82;1.50;;;16.80;99.90;;;;;;5067389;28;20094;-50
2022/07/08 07:07:12;;;;;;;8.57;1.50;;;16.90;99.90;;;;;;5068497;28;20040;-50
2022/07/08 07:09:38;;;;;;;7.57;1.80;;;16.90;99.90;;;;;;5050603;28;20040;-53
2022/07/08 07:12:06;;;;;;;8.85;1.70;;;17.10;99.90;;;;;;5050977;28;22119;-52
2022/07/08 07:14:32;;;;;;;8.63;1.58;;;17.00;99.90;;;;;;5068180;28;20377;-49
2022/07/08 07:16:59;;;;;;;9.57;1.67;;;17.10;99.90;;;;;;5068777;28;20048;-49
2022/07/08 07:19:25;;;;;;;11.50;1.65;;;17.10;99.90;;;;;;5068339;28;20048;-48
2022/07/08 07:21:50;;;;;;;8.20;1.90;;;17.20;99.90;;;;;;5068061;28;20048;-50
2022/07/08 07:24:16;;;;;;;8.50;2.20;;;17.20;99.90;;;;;;5068207;28;20372;-48
2022/07/08 07:26:42;;;;;;;8.48;1.90;;;17.30;99.90;;;;;;5067875;28;20119;-48
2022/07/08 07:29:08;;;;;;;7.47;1.75;;;17.30;99.90;;;;;;5068067;28;20391;-50
2022/07/08 07:31:34;;;;;;;8.60;1.98;;;17.30;99.90;;;;;;5066619;28;20737;-51
2022/07/08 07:34:00;;;;;;;7.78;1.70;;;17.50;99.90;;;;;;5067382;28;20068;-50
2022/07/08 07:36:26;;;;;;;7.53;1.80;;;17.50;99.90;;;;;;5067119;28;20041;-49
2022/07/08 07:38:52;;;;;;;9.23;1.65;;;17.60;99.90;;;;;;5068514;28;20051;-50
2022/07/08 07:41:18;;;;;;;8.75;1.35;;;17.60;99.90;;;;;;5069602;28;20097;-53
2022/07/08 07:43:43;;;;;;;10.05;2.00;;;17.50;99.90;;;;;;5072124;28;20404;-54
2022/07/08 07:46:09;;;;;;;7.28;1.73;;;17.60;99.90;;;;;;5071965;28;20470;-51
2022/07/08 07:48:35;;;;;;;8.48;1.95;;;17.70;99.90;;;;;;5072319;28;20087;-52
2022/07/08 07:51:00;;;;;;;9.10;1.75;;;17.80;99.90;;;;;;5071899;28;20032;-50
2022/07/08 07:53:27;;;;;;;9.25;1.63;;;17.90;99.90;;;;;;5071881;28;20040;-50
2022/07/08 07:55:53;;;;;;;6.68;1.60;;;17.80;99.90;;;;;;5071776;28;20059;-50
2022/07/08 07:58:19;;;;;;;10.45;1.67;;;17.80;99.90;;;;;;5072102;28;20048;-49
2022/07/08 08:00:45;;;;;;;11.30;1.63;;;17.90;99.90;;;;;;5053800;28;20089;-49
2022/07/08 08:03:11;;;;;;;8.13;1.80;;;17.90;99.90;;;;;;5072273;28;20029;-49
2022/07/08 08:05:38;;;;;;;10.30;1.90;;;17.90;99.90;;;;;;5051837;28;20043;-50
2022/07/08 08:08:04;;;;;;;8.95;1.58;;;18.00;99.90;;;;;;5066221;28;20052;-51
2022/07/08 08:10:30;;;;;;;5.22;1.25;;;18.10;99.90;;;;;;5069690;28;20051;-51
2022/07/08 08:12:56;;;;;;;5.35;1.70;;;18.20;99.90;;;;;;5068886;28;20040;-52
2022/07/08 08:15:25;;;;;;;7.75;1.50;;;18.30;99.90;;;;;;5069383;28;21707;-52
2022/07/08 08:17:51;;;;;;;7.50;1.67;;;18.20;99.90;;;;;;5069071;28;20053;-50
2022/07/08 08:20:17;;;;;;;9.05;1.88;;;18.40;99.90;;;;;;5068255;28;20043;-49
2022/07/08 08:22:42;;;;;;;8.07;1.13;;;18.30;99.90;;;;;;5071667;28;20052;-52
2022/07/08 08:25:08;;;;;;;4.88;1.20;;;18.30;99.90;;;;;;5053003;28;20161;-49
2022/07/08 08:27:39;;;;;;;7.72;1.70;;;18.30;99.90;;;;;;5072755;28;20088;-49
2022/07/08 08:30:05;;;;;;;7.88;1.77;;;18.60;99.90;;;;;;5052334;28;20044;-50
2022/07/08 08:32:31;;;;;;;7.35;1.73;;;18.60;99.90;;;;;;5070241;28;20124;-48
2022/07/08 08:34:57;;;;;;;7.03;1.83;;;18.80;99.90;;;;;;5071144;28;20112;-51
2022/07/08 08:37:25;;;;;;;7.85;1.48;;;18.90;99.90;;;;;;5071377;28;20112;-49
2022/07/08 08:39:52;;;;;;;8.25;1.70;;;18.90;99.90;;;;;;5069735;28;20181;-53
2022/07/08 08:42:19;;;;;;;7.78;1.75;;;18.90;99.90;;;;;;5070651;28;20133;-52
2022/07/08 08:44:49;;;;;;;8.85;1.70;;;19.00;99.90;;;;;;5070991;28;20029;-52
2022/07/08 08:47:21;;;;;;;6.28;1.33;;;18.90;99.90;;;;;;5050678;28;20036;-49
2022/07/08 08:49:49;;;;;;;8.18;1.48;;;18.90;99.90;;;;;;5051928;28;20043;-49
2022/07/08 08:52:16;;;;;;;6.82;1.73;;;18.90;99.90;;;;;;5069039;28;20041;-52
2022/07/08 08:54:44;;;;;;;5.63;1.55;;;19.00;99.90;;;;;;5069033;28;20032;-48
2022/07/08 08:57:10;;;;;;;9.80;1.75;;;19.00;99.90;;;;;;5069120;28;20428;-48
2022/07/08 08:59:37;;;;;;;5.55;1.40;;;19.20;99.90;;;;;;5068829;28;20051;-52
2022/07/08 09:02:04;;;;;;;6.88;1.50;;;19.40;99.90;;;;;;5069373;28;20043;-49
2022/07/08 09:04:33;;;;;;;6.82;1.30;;;19.40;99.90;;;;;;5069855;28;20044;-50
2022/07/08 09:07:00;;;;;;;3.75;1.30;;;19.50;99.90;;;;;;5052344;28;20053;-54
2022/07/08 09:09:26;;;;;;;6.28;1.40;;;19.50;99.90;;;;;;5068982;28;20047;-52
2022/07/08 09:11:52;;;;;;;5.18;1.50;;;19.70;99.90;;;;;;5071142;28;20476;-51
2022/07/08 09:14:20;;;;;;;6.75;1.35;;;19.60;99.90;;;;;;5070299;28;20032;-52
2022/07/08 09:17:07;;;;;;;7.13;1.65;;;19.80;99.90;;;;;;5070917;28;20498;-49
2022/07/08 09:19:33;;;;;;;8.13;1.70;;;19.80;99.90;;;;;;5070419;28;20036;-53
2022/07/08 09:21:59;;;;;;;8.05;1.67;;;19.70;99.90;;;;;;5069271;28;20032;-50
2022/07/08 09:24:27;;;;;;;8.80;1.95;;;19.80;99.90;;;;;;5070537;28;20033;-51
2022/07/08 09:26:56;;;;;;;6.38;1.40;;;20.00;99.90;;;;;;5070815;28;20055;-51
2022/07/08 09:29:22;;;;;;;6.68;1.50;;;20.20;99.90;;;;;;5070083;28;20107;-51
2022/07/08 09:31:48;;;;;;;9.45;1.80;;;20.20;99.90;;;;;;5070677;28;20121;-53
2022/07/08 09:34:17;;;;;;;5.72;1.17;;;20.40;99.90;;;;;;5069988;28;20043;-50
2022/07/08 09:36:48;;;;;;;9.00;2.05;;;20.50;99.90;;;;;;5070331;28;20048;-49
2022/07/08 09:39:25;;;;;;;6.65;1.73;;;20.30;99.90;;;;;;5051809;28;20208;-50
2022/07/08 09:41:50;;;;;;;6.78;1.65;;;20.30;99.90;;;;;;5070045;28;20041;-49
2022/07/08 09:44:19;;;;;;;9.73;2.05;;;20.10;99.90;;;;;;5070370;28;20384;-52
2022/07/08 09:46:45;;;;;;;7.32;1.38;;;20.30;99.90;;;;;;5069917;28;20562;-49
2022/07/08 09:49:32;;;;;;;8.93;1.55;;;20.30;99.90;;;;;;5071479;28;20388;-49
2022/07/08 09:51:59;;;;;;;8.73;1.67;;;20.30;99.90;;;;;;5069859;28;20210;-51
2022/07/08 09:54:26;;;;;;;7.32;1.52;;;20.40;99.90;;;;;;5052354;28;20040;-48
2022/07/08 09:56:59;;;;;;;5.65;1.52;;;20.50;99.90;;;;;;5070789;28;20041;-51
2022/07/08 09:59:25;;;;;;;6.00;1.23;;;20.60;99.90;;;;;;5069761;28;20108;-49
2022/07/08 10:01:52;;;;;;;9.18;1.58;;;20.60;99.90;;;;;;5070049;28;20368;-48
2022/07/08 10:04:24;;;;;;;7.97;1.95;;;20.80;99.90;;;;;;5070849;28;20044;-50
2022/07/08 10:06:54;;;;;;;7.63;1.20;;;20.80;99.90;;;;;;5071632;28;20032;-49
2022/07/08 10:09:21;;;;;;;3.95;1.30;;;20.70;99.90;;;;;;5071238;28;20025;-48
2022/07/08 10:11:48;;;;;;;6.50;1.67;;;20.70;99.90;;;;;;5071445;28;20329;-49
2022/07/08 10:14:14;;;;;;;5.90;1.52;;;20.70;99.90;;;;;;5071194;28;20119;-49
2022/07/08 10:16:42;;;;;;;5.53;1.50;;;21.00;99.90;;;;;;5071548;28;20111;-52
2022/07/08 10:19:13;;;;;;;8.85;1.83;;;20.60;99.90;;;;;;5071315;28;20051;-49
2022/07/08 10:21:41;;;;;;;5.70;1.60;;;20.60;99.90;;;;;;5070741;28;20463;-49
2022/07/08 10:24:13;;;;;;;7.55;2.05;;;20.50;99.90;;;;;;5069368;28;20032;-52
2022/07/08 10:26:40;;;;;;;6.65;1.40;;;20.50;99.90;;;;;;5071091;28;20048;-49
2022/07/08 10:29:08;;;;;;;7.43;1.65;;;20.80;99.90;;;;;;5066840;28;20037;-48
2022/07/08 10:31:43;;;;;;;6.47;1.60;;;20.80;99.90;;;;;;5067931;28;20085;-49
2022/07/08 10:34:10;;;;;;;5.80;1.58;;;21.10;99.90;;;;;;5068871;28;20527;-51
2022/07/08 10:36:49;;;;;;;9.52;1.67;;;21.20;99.90;;;;;;5069457;28;20369;-51
2022/07/08 10:39:24;;;;;;;12.15;1.95;;;21.20;99.90;;;;;;5069394;28;20040;-51
2022/07/08 10:42:10;;;;;;;5.30;1.50;;;21.20;99.90;;;;;;5068664;28;20060;-51
2022/07/08 10:44:45;;;;;;;5.38;1.55;;;21.50;99.90;;;;;;5063621;28;20092;-50
2022/07/08 10:47:16;;;;;;;4.82;1.40;;;21.50;99.90;;;;;;5060760;28;20055;-51
2022/07/08 10:49:49;;;;;;;7.68;2.15;;;21.20;99.90;;;;;;5068730;28;20051;-52
2022/07/08 10:52:16;;;;;;;6.30;1.52;;;21.50;99.90;;;;;;5070716;28;20033;-52
2022/07/08 10:54:42;;;;;;;7.88;1.80;;;21.60;99.90;;;;;;5067981;28;20109;-51
2022/07/08 10:57:14;;;;;;;5.78;1.80;;;21.60;99.90;;;;;;5085298;28;20052;-52
2022/07/08 10:59:39;;;;;;;7.57;1.83;;;21.30;99.90;;;;;;5063040;28;20036;-52
2022/07/08 11:02:13;;;;;;;9.55;1.98;;;21.30;99.90;;;;;;5064011;28;20055;-50
2022/07/08 11:04:39;;;;;;;8.38;2.05;;;21.60;99.90;;;;;;5047640;28;20044;-49
2022/07/08 11:09:44;;;;;;;5.68;2.00;;;21.60;99.90;;;;;;5063203;28;20126;-51
2022/07/08 11:12:14;;;;;;;5.47;1.50;;;21.60;99.90;;;;;;5062116;28;20485;-51
2022/07/08 11:14:44;;;;;;;4.60;1.70;;;21.60;99.90;;;;;;5066705;28;20080;-53
2022/07/08 11:17:17;;;;;;;5.43;1.75;;;21.60;99.90;;;;;;5065884;28;20547;-51
2022/07/08 11:19:44;;;;;;;6.68;1.75;;;22.00;99.90;;;;;;5065712;28;20052;-50
2022/07/08 11:22:10;;;;;;;6.50;1.73;;;21.90;99.90;;;;;;5063983;28;20630;-49
2022/07/08 11:24:40;;;;;;;5.22;1.60;;;22.00;99.90;;;;;;5044032;28;20044;-52
2022/07/08 11:27:06;;;;;;;6.88;1.65;;;21.80;99.90;;;;;;5066515;28;20040;-48
2022/07/08 11:29:35;;;;;;;6.30;1.52;;;21.90;99.90;;;;;;5066839;28;20095;-50
2022/07/08 11:32:03;;;;;;;9.18;1.60;;;22.10;99.90;;;;;;5046392;28;20040;-50
2022/07/08 11:34:29;;;;;;;7.38;1.55;;;22.10;99.90;;;;;;5062178;28;20430;-48
2022/07/08 11:37:02;;;;;;;8.82;2.08;;;22.10;99.90;;;;;;5061340;28;20040;-49
2022/07/08 11:39:28;;;;;;;5.78;1.38;;;22.10;99.90;;;;;;5045914;28;20414;-50
2022/07/08 11:41:54;;;;;;;6.47;1.65;;;22.00;99.90;;;;;;5066094;28;20037;-49
2022/07/08 11:44:23;;;;;;;8.23;1.42;;;21.70;99.90;;;;;;5061628;28;20037;-51
2022/07/08 11:46:51;;;;;;;5.60;1.45;;;21.70;99.90;;;;;;5057280;28;20392;-50
2022/07/08 11:49:18;;;;;;;7.60;1.55;;;22.10;99.90;;;;;;5060833;28;20036;-52
2022/07/08 11:51:47;;;;;;;5.72;1.52;;;22.20;99.90;;;;;;5061505;28;20519;-50
2022/07/08 11:54:14;;;;;;;5.30;1.48;;;22.30;99.90;;;;;;5065238;28;20029;-52
2022/07/08 11:56:40;;;;;;;9.13;1.80;;;22.90;99.90;;;;;;5064626;28;20550;-49
2022/07/08 11:59:06;;;;;;;7.47;1.42;;;23.20;99.90;;;;;;5061819;28;20036;-52
2022/07/08 12:01:33;;;;;;;8.70;1.58;;;23.20;99.90;;;;;;5063770;28;20102;-50
2022/07/08 12:03:59;;;;;;;5.10;1.20;;;23.30;99.90;;;;;;5065208;28;20075;-49
2022/07/08 12:06:26;;;;;;;5.47;1.30;;;23.40;99.90;;;;;;5064064;28;20052;-49
2022/07/08 12:08:53;;;;;;;5.55;1.40;;;23.20;99.90;;;;;;5061785;28;20090;-48
2022/07/08 12:11:22;;;;;;;6.20;1.38;;;23.50;99.90;;;;;;5062438;28;20124;-49
2022/07/08 12:13:49;;;;;;;7.07;1.40;;;23.60;99.90;;;;;;5063430;28;20041;-48
2022/07/08 12:16:29;;;;;;;5.00;1.30;;;23.60;99.90;;;;;;5066615;28;20163;-48
2022/07/08 12:18:55;;;;;;;9.23;1.45;;;23.90;99.90;;;;;;5078404;28;20055;-50
2022/07/08 12:21:21;;;;;;;6.28;1.60;;;23.60;99.90;;;;;;5042352;28;20049;-53
2022/07/08 12:24:04;;;;;;;6.22;1.20;;;23.40;99.90;;;;;;5065775;28;20128;-50
2022/07/08 12:26:30;;;;;;;5.25;1.10;;;23.80;99.90;;;;;;5065409;28;20036;-54
2022/07/08 12:28:57;;;;;;;4.00;1.15;;;23.90;99.90;;;;;;5064601;28;20093;-50
2022/07/08 12:31:40;;;;;;;4.43;1.25;;;24.00;99.90;;;;;;5065535;28;20032;-50
2022/07/08 12:34:07;;;;;;;8.80;1.27;;;23.80;99.90;;;;;;5069768;28;20152;-49
2022/07/08 12:36:33;;;;;;;3.92;1.10;;;23.70;99.90;;;;;;5052632;28;20495;-51
2022/07/08 12:39:22;;;;;;;4.60;1.10;;;23.60;99.90;;;;;;5047844;28;20106;-50
2022/07/08 12:41:59;;;;;;;3.92;1.20;;;23.40;99.90;;;;;;5067025;28;20056;-51
2022/07/08 12:44:40;;;;;;;6.50;1.38;;;23.40;99.90;;;;;;5068515;28;20103;-51
2022/07/08 12:47:10;;;;;;;4.50;1.17;;;23.40;99.90;;;;;;5066206;28;20045;-52
2022/07/08 12:49:38;;;;;;;6.30;1.63;;;24.00;99.90;;;;;;5069856;28;20033;-49
2022/07/08 12:52:06;;;;;;;8.57;1.30;;;24.10;99.90;;;;;;5072114;28;20045;-51
2022/07/08 12:54:32;;;;;;;7.18;1.23;;;24.50;99.90;;;;;;5053439;28;20041;-50